الصفحة الرئيسية
METAR-TAF:

METAR-TAF

مطار :

Koné, نيو كاليدونيا

دائرة عرض: 21-03-12S, خط طول: 164-50-18E, ارتفاع: 7 متر

METAR: مفقودة

زمن: 11:43 (00:43 UTC)

توقعات

تاريخ ووقت الإصدار 1ساعة و 43 دقيقة قبل الساعة 23:00UTC
التوقعات صالحة من29 الساعة 00 UTC إلى 29 الساعة 24 UTC
ريح 8 عقدة من الشرق
الرؤية 10 كم أو أكثر
غيوم متفرقة على ارتفاع 3600 قدم
غيوم مفككة على ارتفاع 5800 قدم
أصبح
من 29 الساعة 00 UTC إلى 29 الساعة 02 UTC
ريح 10 عقدة من الجنوب
أصبح
من 29 الساعة 10 UTC إلى 29 الساعة 12 UTC
ريح 2 عقدةمن اتجاهات متغيرة
الرؤية 10 كم أو أكثر
الغيوم لا تقل 1500 م ولا وجود لمزنة ركامية السحاب الأسود

TAF: NWWD 282300Z 2900/2924 08008KT 9999 SCT036 BKN058 BECMG 2900/2902 17010KT BECMG 2910/2912 VRB02KT CAVOK

أرصاد الطقس والتوقعات من أكثر من 4000 مطار (تقارير الطقس للمطار METAR والتنبؤ بالطقس بالمطارTAF).

المحطات المتاحة هي النقط الصفراء والحمراء على الخريطة.

حرك المؤشر فوق النقطة لمعرفة اسم المحطة.

ثم انقر لمعرفة أرصاد وتوقعات الطقس.

لتغيير الخارطة: اضغط على الأزرار الخضراء مع رمز الصليب الأسود للتكبير. على الزر الأخضر مع شرطة للتصغير، أو على الأسهم الخضراء للخرائط المجاورة.


METAR-TAF: